sensor_id;sensor_type;location;lat;lon;timestamp;temperature;humidity
27306;DHT22;14792;50.886;6.468;2022-07-22T00:02:49;16.80;99.90
27306;DHT22;14792;50.886;6.468;2022-07-22T00:05:50;16.80;99.90
27306;DHT22;14792;50.886;6.468;2022-07-22T00:08:52;16.80;99.90
27306;DHT22;14792;50.886;6.468;2022-07-22T00:11:53;16.70;99.90
27306;DHT22;14792;50.886;6.468;2022-07-22T00:14:54;16.80;99.90
27306;DHT22;14792;50.886;6.468;2022-07-22T00:17:55;16.70;99.90
27306;DHT22;14792;50.886;6.468;2022-07-22T00:20:56;16.70;99.90
27306;DHT22;14792;50.886;6.468;2022-07-22T00:23:58;16.70;99.90
27306;DHT22;14792;50.886;6.468;2022-07-22T00:26:59;16.60;99.90
27306;DHT22;14792;50.886;6.468;2022-07-22T00:30:00;16.70;99.90
27306;DHT22;14792;50.886;6.468;2022-07-22T00:33:02;16.70;99.90
27306;DHT22;14792;50.886;6.468;2022-07-22T00:36:03;16.60;99.90
27306;DHT22;14792;50.886;6.468;2022-07-22T00:39:04;16.70;99.90
27306;DHT22;14792;50.886;6.468;2022-07-22T00:42:05;16.70;99.90
27306;DHT22;14792;50.886;6.468;2022-07-22T00:45:07;16.60;99.90
27306;DHT22;14792;50.886;6.468;2022-07-22T00:48:08;16.60;99.90
27306;DHT22;14792;50.886;6.468;2022-07-22T00:51:09;16.60;99.90
27306;DHT22;14792;50.886;6.468;2022-07-22T00:54:10;16.60;99.90
27306;DHT22;14792;50.886;6.468;2022-07-22T00:57:11;16.60;99.90
27306;DHT22;14792;50.886;6.468;2022-07-22T01:00:15;16.60;99.90
27306;DHT22;14792;50.886;6.468;2022-07-22T01:03:14;16.60;99.90
27306;DHT22;14792;50.886;6.468;2022-07-22T01:06:15;16.60;99.90
27306;DHT22;14792;50.886;6.468;2022-07-22T01:09:16;16.60;99.90
27306;DHT22;14792;50.886;6.468;2022-07-22T01:12:17;16.60;99.90
27306;DHT22;14792;50.886;6.468;2022-07-22T01:15:19;16.60;99.90
27306;DHT22;14792;50.886;6.468;2022-07-22T01:18:20;16.60;99.90
27306;DHT22;14792;50.886;6.468;2022-07-22T01:21:21;16.60;99.90
27306;DHT22;14792;50.886;6.468;2022-07-22T01:24:22;16.60;99.90
27306;DHT22;14792;50.886;6.468;2022-07-22T01:27:23;16.60;99.90
27306;DHT22;14792;50.886;6.468;2022-07-22T01:30:25;16.60;99.90
27306;DHT22;14792;50.886;6.468;2022-07-22T01:33:26;16.50;99.90
27306;DHT22;14792;50.886;6.468;2022-07-22T01:36:27;16.50;99.90
27306;DHT22;14792;50.886;6.468;2022-07-22T01:39:28;16.50;99.90
27306;DHT22;14792;50.886;6.468;2022-07-22T01:42:30;16.50;99.90
27306;DHT22;14792;50.886;6.468;2022-07-22T01:45:31;16.60;99.90
27306;DHT22;14792;50.886;6.468;2022-07-22T01:48:32;16.60;99.90
27306;DHT22;14792;50.886;6.468;2022-07-22T01:51:34;16.60;99.90
27306;DHT22;14792;50.886;6.468;2022-07-22T01:54:35;16.60;99.90
27306;DHT22;14792;50.886;6.468;2022-07-22T01:57:36;16.60;99.90
27306;DHT22;14792;50.886;6.468;2022-07-22T02:00:37;16.60;99.90
27306;DHT22;14792;50.886;6.468;2022-07-22T02:03:38;16.60;99.90
27306;DHT22;14792;50.886;6.468;2022-07-22T02:06:40;16.60;99.90
27306;DHT22;14792;50.886;6.468;2022-07-22T02:09:41;16.50;99.90
27306;DHT22;14792;50.886;6.468;2022-07-22T02:12:42;16.50;99.90
27306;DHT22;14792;50.886;6.468;2022-07-22T02:15:43;16.50;99.90
27306;DHT22;14792;50.886;6.468;2022-07-22T02:18:45;16.50;99.90
27306;DHT22;14792;50.886;6.468;2022-07-22T02:21:46;16.60;99.90
27306;DHT22;14792;50.886;6.468;2022-07-22T02:24:47;16.50;99.90
27306;DHT22;14792;50.886;6.468;2022-07-22T02:27:48;16.60;99.90
27306;DHT22;14792;50.886;6.468;2022-07-22T02:30:49;16.60;99.90
27306;DHT22;14792;50.886;6.468;2022-07-22T02:33:51;16.50;99.90
27306;DHT22;14792;50.886;6.468;2022-07-22T02:36:52;16.60;99.90
27306;DHT22;14792;50.886;6.468;2022-07-22T02:39:53;16.60;99.90
27306;DHT22;14792;50.886;6.468;2022-07-22T02:42:54;16.60;99.90
27306;DHT22;14792;50.886;6.468;2022-07-22T02:45:56;16.50;99.90
27306;DHT22;14792;50.886;6.468;2022-07-22T02:48:57;16.60;99.90
27306;DHT22;14792;50.886;6.468;2022-07-22T02:51:58;16.50;99.90
27306;DHT22;14792;50.886;6.468;2022-07-22T02:54:59;16.60;99.90
27306;DHT22;14792;50.886;6.468;2022-07-22T02:58:04;16.50;99.90
27306;DHT22;14792;50.886;6.468;2022-07-22T03:01:05;16.50;99.90
27306;DHT22;14792;50.886;6.468;2022-07-22T03:04:06;16.50;99.90
27306;DHT22;14792;50.886;6.468;2022-07-22T03:07:07;16.50;99.90
27306;DHT22;14792;50.886;6.468;2022-07-22T03:10:09;16.50;99.90
27306;DHT22;14792;50.886;6.468;2022-07-22T03:13:10;16.50;99.90
27306;DHT22;14792;50.886;6.468;2022-07-22T03:16:11;16.40;99.90
27306;DHT22;14792;50.886;6.468;2022-07-22T03:19:12;16.40;99.90
27306;DHT22;14792;50.886;6.468;2022-07-22T03:22:13;16.40;99.90
27306;DHT22;14792;50.886;6.468;2022-07-22T03:25:15;16.30;99.90
27306;DHT22;14792;50.886;6.468;2022-07-22T03:28:16;16.30;99.90
27306;DHT22;14792;50.886;6.468;2022-07-22T03:31:17;16.30;99.90
27306;DHT22;14792;50.886;6.468;2022-07-22T03:34:18;16.30;99.90
27306;DHT22;14792;50.886;6.468;2022-07-22T03:37:20;16.30;99.90
27306;DHT22;14792;50.886;6.468;2022-07-22T03:40:21;16.30;99.90
27306;DHT22;14792;50.886;6.468;2022-07-22T03:43:22;16.30;99.90
27306;DHT22;14792;50.886;6.468;2022-07-22T03:46:23;16.30;99.90
27306;DHT22;14792;50.886;6.468;2022-07-22T03:49:24;16.30;99.90
27306;DHT22;14792;50.886;6.468;2022-07-22T03:52:26;16.30;99.90
27306;DHT22;14792;50.886;6.468;2022-07-22T03:55:27;16.20;99.90
27306;DHT22;14792;50.886;6.468;2022-07-22T03:58:28;16.20;99.90
27306;DHT22;14792;50.886;6.468;2022-07-22T04:01:29;16.20;99.90
27306;DHT22;14792;50.886;6.468;2022-07-22T04:04:31;16.20;99.90
27306;DHT22;14792;50.886;6.468;2022-07-22T04:07:32;16.20;99.90
27306;DHT22;14792;50.886;6.468;2022-07-22T04:10:33;16.30;99.90
27306;DHT22;14792;50.886;6.468;2022-07-22T04:13:34;16.20;99.90
27306;DHT22;14792;50.886;6.468;2022-07-22T04:16:36;16.20;99.90
27306;DHT22;14792;50.886;6.468;2022-07-22T04:19:37;16.20;99.90
27306;DHT22;14792;50.886;6.468;2022-07-22T04:22:38;16.20;99.90
27306;DHT22;14792;50.886;6.468;2022-07-22T04:25:39;16.20;99.90
27306;DHT22;14792;50.886;6.468;2022-07-22T04:28:40;16.20;99.90
27306;DHT22;14792;50.886;6.468;2022-07-22T04:31:42;16.20;99.90
27306;DHT22;14792;50.886;6.468;2022-07-22T04:34:43;16.20;99.90
27306;DHT22;14792;50.886;6.468;2022-07-22T04:37:44;16.20;99.90
27306;DHT22;14792;50.886;6.468;2022-07-22T04:40:45;16.20;99.90
27306;DHT22;14792;50.886;6.468;2022-07-22T04:43:47;16.20;99.90
27306;DHT22;14792;50.886;6.468;2022-07-22T04:46:48;16.20;99.90
27306;DHT22;14792;50.886;6.468;2022-07-22T04:49:49;16.20;99.90
27306;DHT22;14792;50.886;6.468;2022-07-22T04:52:50;16.20;99.90
27306;DHT22;14792;50.886;6.468;2022-07-22T04:55:51;16.30;99.90
27306;DHT22;14792;50.886;6.468;2022-07-22T04:58:53;16.30;99.90
27306;DHT22;14792;50.886;6.468;2022-07-22T05:01:54;16.30;99.90
27306;DHT22;14792;50.886;6.468;2022-07-22T05:04:55;16.30;99.90
27306;DHT22;14792;50.886;6.468;2022-07-22T05:07:56;16.30;99.90
27306;DHT22;14792;50.886;6.468;2022-07-22T05:10:58;16.40;99.90
27306;DHT22;14792;50.886;6.468;2022-07-22T05:13:59;16.40;99.90
27306;DHT22;14792;50.886;6.468;2022-07-22T05:17:00;16.40;99.90
27306;DHT22;14792;50.886;6.468;2022-07-22T05:20:02;16.40;99.90
27306;DHT22;14792;50.886;6.468;2022-07-22T05:23:03;16.40;99.90
27306;DHT22;14792;50.886;6.468;2022-07-22T05:26:04;16.30;99.90
27306;DHT22;14792;50.886;6.468;2022-07-22T05:29:05;16.30;99.90
27306;DHT22;14792;50.886;6.468;2022-07-22T05:32:06;16.30;99.90
27306;DHT22;14792;50.886;6.468;2022-07-22T05:35:07;16.30;99.90
27306;DHT22;14792;50.886;6.468;2022-07-22T05:38:09;16.30;99.90
27306;DHT22;14792;50.886;6.468;2022-07-22T05:41:10;16.30;99.90
27306;DHT22;14792;50.886;6.468;2022-07-22T05:44:11;16.40;99.90
27306;DHT22;14792;50.886;6.468;2022-07-22T05:47:12;16.40;99.90
27306;DHT22;14792;50.886;6.468;2022-07-22T05:50:14;16.40;99.90
27306;DHT22;14792;50.886;6.468;2022-07-22T05:53:15;16.50;99.90
27306;DHT22;14792;50.886;6.468;2022-07-22T05:56:16;16.50;99.90
27306;DHT22;14792;50.886;6.468;2022-07-22T05:59:17;16.50;99.90
27306;DHT22;14792;50.886;6.468;2022-07-22T06:02:18;16.60;99.90
27306;DHT22;14792;50.886;6.468;2022-07-22T06:05:20;16.60;99.90
27306;DHT22;14792;50.886;6.468;2022-07-22T06:15:37;16.70;99.90
27306;DHT22;14792;50.886;6.468;2022-07-22T06:18:38;16.70;99.90
27306;DHT22;14792;50.886;6.468;2022-07-22T06:47:36;17.00;99.90
27306;DHT22;14792;50.886;6.468;2022-07-22T06:57:38;17.00;99.90
27306;DHT22;14792;50.886;6.468;2022-07-22T07:29:40;17.20;99.90
27306;DHT22;14792;50.886;6.468;2022-07-22T07:32:41;17.30;99.90
27306;DHT22;14792;50.886;6.468;2022-07-22T07:50:14;17.80;99.90
27306;DHT22;14792;50.886;6.468;2022-07-22T07:53:15;17.90;99.90
27306;DHT22;14792;50.886;6.468;2022-07-22T07:56:16;17.90;99.90
27306;DHT22;14792;50.886;6.468;2022-07-22T07:59:18;17.90;99.90
27306;DHT22;14792;50.886;6.468;2022-07-22T08:02:19;17.70;99.90
27306;DHT22;14792;50.886;6.468;2022-07-22T08:05:20;17.80;99.90
27306;DHT22;14792;50.886;6.468;2022-07-22T08:08:21;17.90;99.90
27306;DHT22;14792;50.886;6.468;2022-07-22T08:11:22;18.00;99.90
27306;DHT22;14792;50.886;6.468;2022-07-22T08:14:24;18.30;99.90
27306;DHT22;14792;50.886;6.468;2022-07-22T08:17:25;18.50;99.90
27306;DHT22;14792;50.886;6.468;2022-07-22T08:20:26;18.60;99.90
27306;DHT22;14792;50.886;6.468;2022-07-22T08:23:27;18.60;99.90
27306;DHT22;14792;50.886;6.468;2022-07-22T08:26:29;18.30;99.90
27306;DHT22;14792;50.886;6.468;2022-07-22T08:29:30;18.20;99.90
27306;DHT22;14792;50.886;6.468;2022-07-22T08:32:32;18.40;99.90
27306;DHT22;14792;50.886;6.468;2022-07-22T08:35:33;18.60;99.90
27306;DHT22;14792;50.886;6.468;2022-07-22T08:38:34;18.60;99.90
27306;DHT22;14792;50.886;6.468;2022-07-22T08:41:36;18.40;99.90
27306;DHT22;14792;50.886;6.468;2022-07-22T08:44:36;18.40;99.90
27306;DHT22;14792;50.886;6.468;2022-07-22T08:47:37;18.50;99.90
27306;DHT22;14792;50.886;6.468;2022-07-22T08:50:39;18.60;99.90
27306;DHT22;14792;50.886;6.468;2022-07-22T08:53:40;18.70;99.90
27306;DHT22;14792;50.886;6.468;2022-07-22T08:56:41;19.00;99.90
27306;DHT22;14792;50.886;6.468;2022-07-22T08:59:52;19.40;99.90
27306;DHT22;14792;50.886;6.468;2022-07-22T09:02:52;19.40;99.90
27306;DHT22;14792;50.886;6.468;2022-07-22T09:05:54;19.20;99.90
27306;DHT22;14792;50.886;6.468;2022-07-22T09:08:58;19.40;99.90
27306;DHT22;14792;50.886;6.468;2022-07-22T09:12:06;19.00;99.90
27306;DHT22;14792;50.886;6.468;2022-07-22T09:15:06;19.00;99.90
27306;DHT22;14792;50.886;6.468;2022-07-22T09:18:08;19.30;99.90
27306;DHT22;14792;50.886;6.468;2022-07-22T09:21:09;19.50;99.90
27306;DHT22;14792;50.886;6.468;2022-07-22T09:24:25;19.30;99.90
27306;DHT22;14792;50.886;6.468;2022-07-22T09:27:11;19.70;99.90
27306;DHT22;14792;50.886;6.468;2022-07-22T09:30:13;19.70;99.90
27306;DHT22;14792;50.886;6.468;2022-07-22T09:33:14;19.60;99.90
27306;DHT22;14792;50.886;6.468;2022-07-22T09:36:15;19.80;99.90
27306;DHT22;14792;50.886;6.468;2022-07-22T09:39:29;19.90;99.90
27306;DHT22;14792;50.886;6.468;2022-07-22T09:42:30;20.00;99.90
27306;DHT22;14792;50.886;6.468;2022-07-22T09:45:31;20.40;99.90
27306;DHT22;14792;50.886;6.468;2022-07-22T09:48:32;20.50;99.90
27306;DHT22;14792;50.886;6.468;2022-07-22T09:51:33;21.00;99.90
27306;DHT22;14792;50.886;6.468;2022-07-22T09:54:34;21.40;99.90
27306;DHT22;14792;50.886;6.468;2022-07-22T09:57:35;21.60;99.90
27306;DHT22;14792;50.886;6.468;2022-07-22T10:00:39;21.20;99.90
27306;DHT22;14792;50.886;6.468;2022-07-22T10:03:40;21.40;99.90
27306;DHT22;14792;50.886;6.468;2022-07-22T10:06:41;20.50;99.90
27306;DHT22;14792;50.886;6.468;2022-07-22T10:09:43;20.90;99.90
27306;DHT22;14792;50.886;6.468;2022-07-22T10:12:44;21.20;99.90
27306;DHT22;14792;50.886;6.468;2022-07-22T10:15:45;21.00;99.90
27306;DHT22;14792;50.886;6.468;2022-07-22T10:18:46;21.20;99.90
27306;DHT22;14792;50.886;6.468;2022-07-22T10:21:47;21.40;99.90
27306;DHT22;14792;50.886;6.468;2022-07-22T10:25:01;21.20;99.90
27306;DHT22;14792;50.886;6.468;2022-07-22T10:28:00;21.40;99.90
27306;DHT22;14792;50.886;6.468;2022-07-22T10:34:16;21.90;99.90
27306;DHT22;14792;50.886;6.468;2022-07-22T10:43:50;21.70;99.90
27306;DHT22;14792;50.886;6.468;2022-07-22T10:46:52;22.10;99.90
27306;DHT22;14792;50.886;6.468;2022-07-22T10:49:53;22.30;99.90
27306;DHT22;14792;50.886;6.468;2022-07-22T10:52:54;22.20;99.90
27306;DHT22;14792;50.886;6.468;2022-07-22T10:56:03;22.10;99.90
27306;DHT22;14792;50.886;6.468;2022-07-22T10:59:12;22.00;99.90
27306;DHT22;14792;50.886;6.468;2022-07-22T11:02:13;22.10;99.90
27306;DHT22;14792;50.886;6.468;2022-07-22T11:05:14;22.20;99.90
27306;DHT22;14792;50.886;6.468;2022-07-22T11:08:15;21.60;99.90
27306;DHT22;14792;50.886;6.468;2022-07-22T11:11:17;21.10;99.90
27306;DHT22;14792;50.886;6.468;2022-07-22T11:14:26;21.30;99.90
27306;DHT22;14792;50.886;6.468;2022-07-22T11:17:26;21.70;99.90
27306;DHT22;14792;50.886;6.468;2022-07-22T11:20:26;21.70;99.90
27306;DHT22;14792;50.886;6.468;2022-07-22T11:23:27;21.90;99.90
27306;DHT22;14792;50.886;6.468;2022-07-22T11:26:34;22.30;99.90
27306;DHT22;14792;50.886;6.468;2022-07-22T11:29:34;22.20;99.90
27306;DHT22;14792;50.886;6.468;2022-07-22T11:32:41;22.00;99.90
27306;DHT22;14792;50.886;6.468;2022-07-22T11:35:38;22.30;99.90
27306;DHT22;14792;50.886;6.468;2022-07-22T11:38:48;22.20;99.90
27306;DHT22;14792;50.886;6.468;2022-07-22T11:41:47;22.10;99.90
27306;DHT22;14792;50.886;6.468;2022-07-22T11:44:48;22.50;99.90
27306;DHT22;14792;50.886;6.468;2022-07-22T11:47:49;22.40;99.90
27306;DHT22;14792;50.886;6.468;2022-07-22T11:50:58;22.40;99.90
27306;DHT22;14792;50.886;6.468;2022-07-22T11:53:51;22.50;99.90
27306;DHT22;14792;50.886;6.468;2022-07-22T11:56:53;22.60;99.90
27306;DHT22;14792;50.886;6.468;2022-07-22T11:59:54;22.20;99.90
27306;DHT22;14792;50.886;6.468;2022-07-22T12:02:55;22.50;99.90
27306;DHT22;14792;50.886;6.468;2022-07-22T12:05:56;22.50;99.90
27306;DHT22;14792;50.886;6.468;2022-07-22T12:09:08;22.50;99.90
27306;DHT22;14792;50.886;6.468;2022-07-22T12:11:59;22.10;99.90
27306;DHT22;14792;50.886;6.468;2022-07-22T12:15:00;22.00;99.90
27306;DHT22;14792;50.886;6.468;2022-07-22T12:18:17;22.00;99.90
27306;DHT22;14792;50.886;6.468;2022-07-22T12:21:17;22.40;99.90
27306;DHT22;14792;50.886;6.468;2022-07-22T12:24:34;22.70;99.90
27306;DHT22;14792;50.886;6.468;2022-07-22T12:27:35;22.90;99.90
27306;DHT22;14792;50.886;6.468;2022-07-22T12:30:36;22.80;99.90
27306;DHT22;14792;50.886;6.468;2022-07-22T12:33:37;22.50;99.90
27306;DHT22;14792;50.886;6.468;2022-07-22T12:36:38;22.40;99.90
27306;DHT22;14792;50.886;6.468;2022-07-22T12:39:51;22.20;99.90
27306;DHT22;14792;50.886;6.468;2022-07-22T12:42:42;22.50;99.90
27306;DHT22;14792;50.886;6.468;2022-07-22T12:45:42;22.50;99.90
27306;DHT22;14792;50.886;6.468;2022-07-22T12:48:53;22.90;99.90
27306;DHT22;14792;50.886;6.468;2022-07-22T12:52:09;23.20;99.90
27306;DHT22;14792;50.886;6.468;2022-07-22T12:55:09;22.80;99.90
27306;DHT22;14792;50.886;6.468;2022-07-22T12:58:11;23.30;99.90
27306;DHT22;14792;50.886;6.468;2022-07-22T13:01:12;23.40;99.90
27306;DHT22;14792;50.886;6.468;2022-07-22T13:04:13;23.70;99.90
27306;DHT22;14792;50.886;6.468;2022-07-22T13:07:14;23.80;99.90
27306;DHT22;14792;50.886;6.468;2022-07-22T13:10:16;23.60;99.90
27306;DHT22;14792;50.886;6.468;2022-07-22T13:13:17;23.70;99.90
27306;DHT22;14792;50.886;6.468;2022-07-22T13:16:18;23.80;99.90
27306;DHT22;14792;50.886;6.468;2022-07-22T13:19:19;24.10;99.90
27306;DHT22;14792;50.886;6.468;2022-07-22T13:22:20;24.30;99.90
27306;DHT22;14792;50.886;6.468;2022-07-22T13:25:22;24.30;99.90
27306;DHT22;14792;50.886;6.468;2022-07-22T13:28:23;23.80;99.90
27306;DHT22;14792;50.886;6.468;2022-07-22T13:31:24;24.00;99.90
27306;DHT22;14792;50.886;6.468;2022-07-22T13:34:25;24.40;99.90
27306;DHT22;14792;50.886;6.468;2022-07-22T13:37:27;24.30;99.90
27306;DHT22;14792;50.886;6.468;2022-07-22T13:40:28;24.40;99.90
27306;DHT22;14792;50.886;6.468;2022-07-22T13:43:29;24.60;99.90
27306;DHT22;14792;50.886;6.468;2022-07-22T13:46:30;23.90;99.90
27306;DHT22;14792;50.886;6.468;2022-07-22T13:49:31;24.10;99.90
27306;DHT22;14792;50.886;6.468;2022-07-22T13:52:33;23.50;99.90
27306;DHT22;14792;50.886;6.468;2022-07-22T13:55:34;22.90;99.90
27306;DHT22;14792;50.886;6.468;2022-07-22T13:58:35;23.10;99.90
27306;DHT22;14792;50.886;6.468;2022-07-22T14:01:37;23.20;99.90
27306;DHT22;14792;50.886;6.468;2022-07-22T14:04:38;23.80;99.90
27306;DHT22;14792;50.886;6.468;2022-07-22T14:07:39;24.50;99.90
27306;DHT22;14792;50.886;6.468;2022-07-22T14:10:40;24.30;99.90
27306;DHT22;14792;50.886;6.468;2022-07-22T14:13:41;24.60;99.90
27306;DHT22;14792;50.886;6.468;2022-07-22T14:16:43;24.70;99.90
27306;DHT22;14792;50.886;6.468;2022-07-22T14:19:44;24.30;99.90
27306;DHT22;14792;50.886;6.468;2022-07-22T14:22:45;24.70;99.90
27306;DHT22;14792;50.886;6.468;2022-07-22T14:25:46;24.70;99.90
27306;DHT22;14792;50.886;6.468;2022-07-22T14:28:48;24.70;99.90
27306;DHT22;14792;50.886;6.468;2022-07-22T14:31:49;24.60;99.90
27306;DHT22;14792;50.886;6.468;2022-07-22T14:34:50;24.80;99.90
27306;DHT22;14792;50.886;6.468;2022-07-22T14:37:51;24.50;99.90
27306;DHT22;14792;50.886;6.468;2022-07-22T14:40:53;24.60;99.90
27306;DHT22;14792;50.886;6.468;2022-07-22T14:43:54;24.50;99.90
27306;DHT22;14792;50.886;6.468;2022-07-22T14:46:55;24.70;99.90
27306;DHT22;14792;50.886;6.468;2022-07-22T14:49:56;24.70;99.90
27306;DHT22;14792;50.886;6.468;2022-07-22T14:52:57;25.00;99.90
27306;DHT22;14792;50.886;6.468;2022-07-22T14:55:59;24.80;99.90
27306;DHT22;14792;50.886;6.468;2022-07-22T14:59:00;24.50;99.90
27306;DHT22;14792;50.886;6.468;2022-07-22T15:02:01;24.60;99.90
27306;DHT22;14792;50.886;6.468;2022-07-22T15:05:02;24.80;99.90
27306;DHT22;14792;50.886;6.468;2022-07-22T15:08:04;24.90;99.90
27306;DHT22;14792;50.886;6.468;2022-07-22T15:11:05;24.60;99.90
27306;DHT22;14792;50.886;6.468;2022-07-22T15:14:06;24.60;99.90
27306;DHT22;14792;50.886;6.468;2022-07-22T15:17:07;24.60;99.90
27306;DHT22;14792;50.886;6.468;2022-07-22T15:20:09;24.80;99.90
27306;DHT22;14792;50.886;6.468;2022-07-22T15:23:10;24.60;99.90
27306;DHT22;14792;50.886;6.468;2022-07-22T15:26:11;24.50;99.90
27306;DHT22;14792;50.886;6.468;2022-07-22T15:29:12;24.60;99.90
27306;DHT22;14792;50.886;6.468;2022-07-22T15:32:14;24.70;99.90
27306;DHT22;14792;50.886;6.468;2022-07-22T15:35:15;24.80;99.90
27306;DHT22;14792;50.886;6.468;2022-07-22T15:38:16;25.00;99.90
27306;DHT22;14792;50.886;6.468;2022-07-22T15:41:17;25.20;99.90
27306;DHT22;14792;50.886;6.468;2022-07-22T15:44:18;25.40;99.90
27306;DHT22;14792;50.886;6.468;2022-07-22T15:47:19;25.10;99.90
27306;DHT22;14792;50.886;6.468;2022-07-22T15:50:21;25.30;99.90
27306;DHT22;14792;50.886;6.468;2022-07-22T15:53:22;25.10;99.90
27306;DHT22;14792;50.886;6.468;2022-07-22T15:56:23;24.30;99.90
27306;DHT22;14792;50.886;6.468;2022-07-22T15:59:24;24.60;99.90
27306;DHT22;14792;50.886;6.468;2022-07-22T16:02:34;24.50;99.90
27306;DHT22;14792;50.886;6.468;2022-07-22T16:05:36;24.60;99.90
27306;DHT22;14792;50.886;6.468;2022-07-22T16:08:37;24.30;99.90
27306;DHT22;14792;50.886;6.468;2022-07-22T16:11:38;24.30;99.90
27306;DHT22;14792;50.886;6.468;2022-07-22T16:14:39;24.10;99.90
27306;DHT22;14792;50.886;6.468;2022-07-22T16:17:41;24.20;99.90
27306;DHT22;14792;50.886;6.468;2022-07-22T16:20:42;24.20;99.90
27306;DHT22;14792;50.886;6.468;2022-07-22T16:23:43;24.20;99.90
27306;DHT22;14792;50.886;6.468;2022-07-22T16:26:44;24.20;99.90
27306;DHT22;14792;50.886;6.468;2022-07-22T16:29:45;24.00;99.90
27306;DHT22;14792;50.886;6.468;2022-07-22T16:32:47;24.00;99.90
27306;DHT22;14792;50.886;6.468;2022-07-22T16:35:48;24.20;99.90
27306;DHT22;14792;50.886;6.468;2022-07-22T16:38:49;24.10;99.90
27306;DHT22;14792;50.886;6.468;2022-07-22T16:41:50;24.10;99.90
27306;DHT22;14792;50.886;6.468;2022-07-22T16:44:52;24.00;99.90
27306;DHT22;14792;50.886;6.468;2022-07-22T16:47:53;23.90;99.90
27306;DHT22;14792;50.886;6.468;2022-07-22T16:50:54;23.90;99.90
27306;DHT22;14792;50.886;6.468;2022-07-22T16:53:55;23.80;99.90
27306;DHT22;14792;50.886;6.468;2022-07-22T16:56:57;23.70;99.90
27306;DHT22;14792;50.886;6.468;2022-07-22T16:59:58;23.50;99.90
27306;DHT22;14792;50.886;6.468;2022-07-22T17:02:59;23.50;99.90
27306;DHT22;14792;50.886;6.468;2022-07-22T17:06:00;23.60;99.90
27306;DHT22;14792;50.886;6.468;2022-07-22T17:09:02;23.50;99.90
27306;DHT22;14792;50.886;6.468;2022-07-22T17:12:03;23.30;99.90
27306;DHT22;14792;50.886;6.468;2022-07-22T17:15:04;23.10;99.90
27306;DHT22;14792;50.886;6.468;2022-07-22T17:18:05;22.90;99.90
27306;DHT22;14792;50.886;6.468;2022-07-22T17:21:06;23.00;99.90
27306;DHT22;14792;50.886;6.468;2022-07-22T17:24:08;23.10;99.90
27306;DHT22;14792;50.886;6.468;2022-07-22T17:27:09;23.00;99.90
27306;DHT22;14792;50.886;6.468;2022-07-22T17:30:10;22.90;99.90
27306;DHT22;14792;50.886;6.468;2022-07-22T17:33:11;22.90;99.90
27306;DHT22;14792;50.886;6.468;2022-07-22T17:36:13;22.90;99.90
27306;DHT22;14792;50.886;6.468;2022-07-22T17:39:14;22.80;99.90
27306;DHT22;14792;50.886;6.468;2022-07-22T17:42:15;22.80;99.90
27306;DHT22;14792;50.886;6.468;2022-07-22T17:45:16;22.70;99.90
27306;DHT22;14792;50.886;6.468;2022-07-22T17:48:17;22.60;99.90
27306;DHT22;14792;50.886;6.468;2022-07-22T17:51:19;22.60;99.90
27306;DHT22;14792;50.886;6.468;2022-07-22T17:54:20;22.40;99.90
27306;DHT22;14792;50.886;6.468;2022-07-22T17:57:21;22.40;99.90
27306;DHT22;14792;50.886;6.468;2022-07-22T18:00:22;22.40;99.90
27306;DHT22;14792;50.886;6.468;2022-07-22T18:03:24;22.40;99.90
27306;DHT22;14792;50.886;6.468;2022-07-22T18:06:25;22.30;99.90
27306;DHT22;14792;50.886;6.468;2022-07-22T18:09:26;22.40;99.90
27306;DHT22;14792;50.886;6.468;2022-07-22T18:12:27;22.40;99.90
27306;DHT22;14792;50.886;6.468;2022-07-22T18:15:28;22.30;99.90
27306;DHT22;14792;50.886;6.468;2022-07-22T18:18:30;22.30;99.90
27306;DHT22;14792;50.886;6.468;2022-07-22T18:21:31;22.20;99.90
27306;DHT22;14792;50.886;6.468;2022-07-22T18:24:32;22.20;99.90
27306;DHT22;14792;50.886;6.468;2022-07-22T18:27:33;22.20;99.90
27306;DHT22;14792;50.886;6.468;2022-07-22T18:30:35;22.10;99.90
27306;DHT22;14792;50.886;6.468;2022-07-22T18:33:36;22.20;99.90
27306;DHT22;14792;50.886;6.468;2022-07-22T18:36:37;22.20;99.90
27306;DHT22;14792;50.886;6.468;2022-07-22T18:39:38;22.10;99.90
27306;DHT22;14792;50.886;6.468;2022-07-22T18:42:39;22.10;99.90
27306;DHT22;14792;50.886;6.468;2022-07-22T18:45:41;22.00;99.90
27306;DHT22;14792;50.886;6.468;2022-07-22T18:48:42;21.90;99.90
27306;DHT22;14792;50.886;6.468;2022-07-22T18:51:43;21.90;99.90
27306;DHT22;14792;50.886;6.468;2022-07-22T18:54:44;21.90;99.90
27306;DHT22;14792;50.886;6.468;2022-07-22T18:57:46;21.80;99.90
27306;DHT22;14792;50.886;6.468;2022-07-22T19:00:47;21.70;99.90
27306;DHT22;14792;50.886;6.468;2022-07-22T19:03:48;21.70;99.90
27306;DHT22;14792;50.886;6.468;2022-07-22T19:06:49;21.60;99.90
27306;DHT22;14792;50.886;6.468;2022-07-22T19:09:50;21.60;99.90
27306;DHT22;14792;50.886;6.468;2022-07-22T19:12:52;21.60;99.90
27306;DHT22;14792;50.886;6.468;2022-07-22T19:15:53;21.50;99.90
27306;DHT22;14792;50.886;6.468;2022-07-22T19:18:54;21.50;99.90
27306;DHT22;14792;50.886;6.468;2022-07-22T19:21:55;21.40;99.90
27306;DHT22;14792;50.886;6.468;2022-07-22T19:24:57;21.40;99.90
27306;DHT22;14792;50.886;6.468;2022-07-22T19:27:58;21.30;99.90
27306;DHT22;14792;50.886;6.468;2022-07-22T19:30:59;21.20;99.90
27306;DHT22;14792;50.886;6.468;2022-07-22T19:34:00;21.20;99.90
27306;DHT22;14792;50.886;6.468;2022-07-22T19:37:02;21.20;99.90
27306;DHT22;14792;50.886;6.468;2022-07-22T19:40:03;21.10;99.90
27306;DHT22;14792;50.886;6.468;2022-07-22T19:43:04;21.00;99.90
27306;DHT22;14792;50.886;6.468;2022-07-22T19:46:05;21.10;99.90
27306;DHT22;14792;50.886;6.468;2022-07-22T19:49:06;21.10;99.90
27306;DHT22;14792;50.886;6.468;2022-07-22T19:52:08;20.90;99.90
27306;DHT22;14792;50.886;6.468;2022-07-22T19:55:09;20.90;99.90
27306;DHT22;14792;50.886;6.468;2022-07-22T19:58:10;20.80;99.90
27306;DHT22;14792;50.886;6.468;2022-07-22T20:01:11;20.90;99.90
27306;DHT22;14792;50.886;6.468;2022-07-22T20:04:13;20.80;99.90
27306;DHT22;14792;50.886;6.468;2022-07-22T20:07:14;20.80;99.90
27306;DHT22;14792;50.886;6.468;2022-07-22T20:10:15;20.80;99.90
27306;DHT22;14792;50.886;6.468;2022-07-22T20:13:16;20.70;99.90
27306;DHT22;14792;50.886;6.468;2022-07-22T20:16:17;20.80;99.90
27306;DHT22;14792;50.886;6.468;2022-07-22T20:19:19;20.70;99.90
27306;DHT22;14792;50.886;6.468;2022-07-22T20:22:20;20.60;99.90
27306;DHT22;14792;50.886;6.468;2022-07-22T20:25:21;20.60;99.90
27306;DHT22;14792;50.886;6.468;2022-07-22T20:28:22;20.50;99.90
27306;DHT22;14792;50.886;6.468;2022-07-22T20:31:24;20.40;99.90
27306;DHT22;14792;50.886;6.468;2022-07-22T20:34:25;20.40;99.90
27306;DHT22;14792;50.886;6.468;2022-07-22T20:37:26;20.40;99.90
27306;DHT22;14792;50.886;6.468;2022-07-22T20:40:27;20.30;99.90